sensor_id;sensor_type;location;lat;lon;timestamp;P1;durP1;ratioP1;P2;durP2;ratioP2
24557;SDS011;12726;49.148;8.582;2023-07-13T00:02:22;2.40;;;1.05;;
24557;SDS011;12726;49.148;8.582;2023-07-13T00:05:07;2.85;;;1.27;;
24557;SDS011;12726;49.148;8.582;2023-07-13T00:07:53;5.80;;;1.20;;
24557;SDS011;12726;49.148;8.582;2023-07-13T00:10:40;3.35;;;1.27;;
24557;SDS011;12726;49.148;8.582;2023-07-13T00:13:25;4.97;;;1.35;;
24557;SDS011;12726;49.148;8.582;2023-07-13T00:16:13;6.22;;;1.10;;
24557;SDS011;12726;49.148;8.582;2023-07-13T00:18:58;1.33;;;1.08;;
24557;SDS011;12726;49.148;8.582;2023-07-13T00:21:44;1.80;;;1.00;;
24557;SDS011;12726;49.148;8.582;2023-07-13T00:24:29;2.72;;;1.02;;
24557;SDS011;12726;49.148;8.582;2023-07-13T00:27:14;1.52;;;0.90;;
24557;SDS011;12726;49.148;8.582;2023-07-13T00:30:00;2.72;;;1.02;;
24557;SDS011;12726;49.148;8.582;2023-07-13T00:32:47;4.30;;;1.13;;
24557;SDS011;12726;49.148;8.582;2023-07-13T00:35:33;3.40;;;1.35;;
24557;SDS011;12726;49.148;8.582;2023-07-13T00:38:19;5.35;;;1.27;;
24557;SDS011;12726;49.148;8.582;2023-07-13T00:41:04;4.00;;;1.13;;
24557;SDS011;12726;49.148;8.582;2023-07-13T00:43:50;3.53;;;1.10;;
24557;SDS011;12726;49.148;8.582;2023-07-13T00:46:35;2.25;;;0.82;;
24557;SDS011;12726;49.148;8.582;2023-07-13T00:49:22;2.47;;;0.88;;
24557;SDS011;12726;49.148;8.582;2023-07-13T00:52:09;3.05;;;1.35;;
24557;SDS011;12726;49.148;8.582;2023-07-13T00:54:54;5.78;;;1.20;;
24557;SDS011;12726;49.148;8.582;2023-07-13T00:57:41;5.00;;;1.25;;
24557;SDS011;12726;49.148;8.582;2023-07-13T01:00:27;1.20;;;0.98;;
24557;SDS011;12726;49.148;8.582;2023-07-13T01:03:14;3.75;;;1.08;;
24557;SDS011;12726;49.148;8.582;2023-07-13T01:06:01;2.95;;;1.40;;
24557;SDS011;12726;49.148;8.582;2023-07-13T01:08:46;3.25;;;1.08;;
24557;SDS011;12726;49.148;8.582;2023-07-13T01:11:32;3.78;;;1.17;;
24557;SDS011;12726;49.148;8.582;2023-07-13T01:14:18;3.30;;;1.20;;
24557;SDS011;12726;49.148;8.582;2023-07-13T01:17:04;3.95;;;1.25;;
24557;SDS011;12726;49.148;8.582;2023-07-13T01:19:49;2.97;;;1.13;;
24557;SDS011;12726;49.148;8.582;2023-07-13T01:22:36;2.05;;;1.27;;
24557;SDS011;12726;49.148;8.582;2023-07-13T01:25:21;3.78;;;1.00;;
24557;SDS011;12726;49.148;8.582;2023-07-13T01:28:07;3.58;;;1.00;;
24557;SDS011;12726;49.148;8.582;2023-07-13T01:30:53;2.03;;;1.08;;
24557;SDS011;12726;49.148;8.582;2023-07-13T01:33:40;1.95;;;1.10;;
24557;SDS011;12726;49.148;8.582;2023-07-13T01:36:26;2.33;;;1.10;;
24557;SDS011;12726;49.148;8.582;2023-07-13T01:39:13;4.38;;;1.10;;
24557;SDS011;12726;49.148;8.582;2023-07-13T01:42:01;3.00;;;1.05;;
24557;SDS011;12726;49.148;8.582;2023-07-13T01:44:46;3.58;;;1.00;;
24557;SDS011;12726;49.148;8.582;2023-07-13T01:47:31;3.55;;;1.30;;
24557;SDS011;12726;49.148;8.582;2023-07-13T01:50:17;4.63;;;1.70;;
24557;SDS011;12726;49.148;8.582;2023-07-13T01:53:02;2.58;;;1.48;;
24557;SDS011;12726;49.148;8.582;2023-07-13T01:55:48;3.58;;;2.35;;
24557;SDS011;12726;49.148;8.582;2023-07-13T01:58:34;5.28;;;2.42;;
24557;SDS011;12726;49.148;8.582;2023-07-13T02:01:19;4.07;;;2.10;;
24557;SDS011;12726;49.148;8.582;2023-07-13T02:04:04;7.82;;;2.97;;
24557;SDS011;12726;49.148;8.582;2023-07-13T02:06:50;4.38;;;2.45;;
24557;SDS011;12726;49.148;8.582;2023-07-13T02:09:35;4.20;;;2.72;;
24557;SDS011;12726;49.148;8.582;2023-07-13T02:12:25;3.05;;;2.25;;
24557;SDS011;12726;49.148;8.582;2023-07-13T02:15:10;5.25;;;2.78;;
24557;SDS011;12726;49.148;8.582;2023-07-13T02:17:55;4.13;;;2.50;;
24557;SDS011;12726;49.148;8.582;2023-07-13T02:20:42;4.57;;;2.30;;
24557;SDS011;12726;49.148;8.582;2023-07-13T02:23:28;3.30;;;2.10;;
24557;SDS011;12726;49.148;8.582;2023-07-13T02:26:16;5.25;;;2.40;;
24557;SDS011;12726;49.148;8.582;2023-07-13T02:29:06;3.35;;;2.25;;
24557;SDS011;12726;49.148;8.582;2023-07-13T02:31:51;5.55;;;2.20;;
24557;SDS011;12726;49.148;8.582;2023-07-13T02:34:36;4.55;;;2.30;;
24557;SDS011;12726;49.148;8.582;2023-07-13T02:37:21;5.60;;;2.00;;
24557;SDS011;12726;49.148;8.582;2023-07-13T02:40:09;6.53;;;2.55;;
24557;SDS011;12726;49.148;8.582;2023-07-13T02:42:57;2.78;;;1.98;;
24557;SDS011;12726;49.148;8.582;2023-07-13T02:45:44;5.57;;;2.35;;
24557;SDS011;12726;49.148;8.582;2023-07-13T02:48:30;3.60;;;2.65;;
24557;SDS011;12726;49.148;8.582;2023-07-13T02:51:15;5.90;;;2.85;;
24557;SDS011;12726;49.148;8.582;2023-07-13T02:54:01;4.80;;;2.72;;
24557;SDS011;12726;49.148;8.582;2023-07-13T02:56:46;5.20;;;2.35;;
24557;SDS011;12726;49.148;8.582;2023-07-13T02:59:32;4.65;;;2.78;;
24557;SDS011;12726;49.148;8.582;2023-07-13T03:02:18;5.90;;;2.83;;
24557;SDS011;12726;49.148;8.582;2023-07-13T03:05:04;5.97;;;3.38;;
24557;SDS011;12726;49.148;8.582;2023-07-13T03:07:49;4.85;;;2.50;;
24557;SDS011;12726;49.148;8.582;2023-07-13T03:10:35;5.78;;;2.22;;
24557;SDS011;12726;49.148;8.582;2023-07-13T03:13:20;4.95;;;2.20;;
24557;SDS011;12726;49.148;8.582;2023-07-13T03:16:06;4.10;;;2.10;;
24557;SDS011;12726;49.148;8.582;2023-07-13T03:18:54;3.60;;;1.90;;
24557;SDS011;12726;49.148;8.582;2023-07-13T03:21:39;3.80;;;2.17;;
24557;SDS011;12726;49.148;8.582;2023-07-13T03:24:24;5.43;;;2.20;;
24557;SDS011;12726;49.148;8.582;2023-07-13T03:27:10;3.55;;;1.90;;
24557;SDS011;12726;49.148;8.582;2023-07-13T03:29:55;4.45;;;2.20;;
24557;SDS011;12726;49.148;8.582;2023-07-13T03:32:41;6.13;;;2.10;;
24557;SDS011;12726;49.148;8.582;2023-07-13T03:35:27;4.78;;;2.20;;
24557;SDS011;12726;49.148;8.582;2023-07-13T03:38:13;3.90;;;2.10;;
24557;SDS011;12726;49.148;8.582;2023-07-13T03:40:58;3.42;;;2.13;;
24557;SDS011;12726;49.148;8.582;2023-07-13T03:43:45;4.20;;;2.42;;
24557;SDS011;12726;49.148;8.582;2023-07-13T03:46:32;6.93;;;2.60;;
24557;SDS011;12726;49.148;8.582;2023-07-13T03:49:18;5.25;;;2.72;;
24557;SDS011;12726;49.148;8.582;2023-07-13T03:52:05;7.05;;;2.50;;
24557;SDS011;12726;49.148;8.582;2023-07-13T03:54:51;4.90;;;2.75;;
24557;SDS011;12726;49.148;8.582;2023-07-13T03:57:37;2.50;;;2.20;;
24557;SDS011;12726;49.148;8.582;2023-07-13T04:00:22;3.42;;;2.58;;
24557;SDS011;12726;49.148;8.582;2023-07-13T04:03:08;6.00;;;2.40;;
24557;SDS011;12726;49.148;8.582;2023-07-13T04:05:54;5.97;;;2.65;;
24557;SDS011;12726;49.148;8.582;2023-07-13T04:08:45;6.90;;;2.80;;
24557;SDS011;12726;49.148;8.582;2023-07-13T04:11:31;7.30;;;2.92;;
24557;SDS011;12726;49.148;8.582;2023-07-13T04:14:19;5.43;;;2.40;;
24557;SDS011;12726;49.148;8.582;2023-07-13T04:17:05;4.70;;;2.42;;
24557;SDS011;12726;49.148;8.582;2023-07-13T04:19:50;7.05;;;2.22;;
24557;SDS011;12726;49.148;8.582;2023-07-13T04:22:35;6.63;;;1.88;;
24557;SDS011;12726;49.148;8.582;2023-07-13T04:25:23;7.15;;;2.35;;
24557;SDS011;12726;49.148;8.582;2023-07-13T04:28:08;6.40;;;2.17;;
24557;SDS011;12726;49.148;8.582;2023-07-13T04:30:53;4.40;;;1.75;;
24557;SDS011;12726;49.148;8.582;2023-07-13T04:33:40;4.10;;;1.90;;
24557;SDS011;12726;49.148;8.582;2023-07-13T04:36:27;2.83;;;1.65;;
24557;SDS011;12726;49.148;8.582;2023-07-13T04:39:15;4.55;;;1.92;;
24557;SDS011;12726;49.148;8.582;2023-07-13T04:42:05;2.90;;;1.67;;
24557;SDS011;12726;49.148;8.582;2023-07-13T04:44:51;3.42;;;1.60;;
24557;SDS011;12726;49.148;8.582;2023-07-13T04:47:37;5.25;;;1.80;;
24557;SDS011;12726;49.148;8.582;2023-07-13T04:50:22;3.45;;;1.70;;
24557;SDS011;12726;49.148;8.582;2023-07-13T04:53:07;2.78;;;1.52;;
24557;SDS011;12726;49.148;8.582;2023-07-13T04:55:54;3.97;;;1.55;;
24557;SDS011;12726;49.148;8.582;2023-07-13T04:58:41;4.95;;;1.30;;
24557;SDS011;12726;49.148;8.582;2023-07-13T05:01:26;3.80;;;2.05;;
24557;SDS011;12726;49.148;8.582;2023-07-13T05:04:12;3.17;;;1.63;;
24557;SDS011;12726;49.148;8.582;2023-07-13T05:06:58;2.75;;;1.67;;
24557;SDS011;12726;49.148;8.582;2023-07-13T05:09:44;5.00;;;1.70;;
24557;SDS011;12726;49.148;8.582;2023-07-13T05:12:29;3.95;;;1.63;;
24557;SDS011;12726;49.148;8.582;2023-07-13T05:15:16;3.40;;;1.80;;
24557;SDS011;12726;49.148;8.582;2023-07-13T05:18:04;3.60;;;1.92;;
24557;SDS011;12726;49.148;8.582;2023-07-13T05:20:56;3.05;;;1.63;;
24557;SDS011;12726;49.148;8.582;2023-07-13T05:23:45;2.47;;;2.03;;
24557;SDS011;12726;49.148;8.582;2023-07-13T05:26:30;4.05;;;1.80;;
24557;SDS011;12726;49.148;8.582;2023-07-13T05:29:15;7.55;;;2.00;;
24557;SDS011;12726;49.148;8.582;2023-07-13T05:32:02;9.13;;;1.90;;
24557;SDS011;12726;49.148;8.582;2023-07-13T05:34:48;3.65;;;1.80;;
24557;SDS011;12726;49.148;8.582;2023-07-13T05:37:33;2.80;;;2.00;;
24557;SDS011;12726;49.148;8.582;2023-07-13T05:40:20;4.80;;;2.25;;
24557;SDS011;12726;49.148;8.582;2023-07-13T05:43:05;4.43;;;2.05;;
24557;SDS011;12726;49.148;8.582;2023-07-13T05:45:53;4.78;;;1.92;;
24557;SDS011;12726;49.148;8.582;2023-07-13T05:48:41;4.82;;;2.00;;
24557;SDS011;12726;49.148;8.582;2023-07-13T05:51:26;6.80;;;2.10;;
24557;SDS011;12726;49.148;8.582;2023-07-13T05:54:11;3.70;;;1.58;;
24557;SDS011;12726;49.148;8.582;2023-07-13T05:56:56;2.83;;;1.48;;
24557;SDS011;12726;49.148;8.582;2023-07-13T05:59:42;3.03;;;1.30;;
24557;SDS011;12726;49.148;8.582;2023-07-13T06:02:27;2.85;;;1.23;;
24557;SDS011;12726;49.148;8.582;2023-07-13T06:05:14;3.25;;;1.85;;
24557;SDS011;12726;49.148;8.582;2023-07-13T06:08:00;2.90;;;1.55;;
24557;SDS011;12726;49.148;8.582;2023-07-13T06:10:45;3.72;;;1.40;;
24557;SDS011;12726;49.148;8.582;2023-07-13T06:13:30;8.18;;;1.40;;
24557;SDS011;12726;49.148;8.582;2023-07-13T06:16:16;1.67;;;1.40;;
24557;SDS011;12726;49.148;8.582;2023-07-13T06:19:02;3.28;;;1.70;;
24557;SDS011;12726;49.148;8.582;2023-07-13T06:21:48;2.67;;;1.15;;
24557;SDS011;12726;49.148;8.582;2023-07-13T06:24:34;3.78;;;1.50;;
24557;SDS011;12726;49.148;8.582;2023-07-13T06:27:19;3.78;;;1.33;;
24557;SDS011;12726;49.148;8.582;2023-07-13T06:30:05;3.47;;;1.35;;
24557;SDS011;12726;49.148;8.582;2023-07-13T06:32:51;4.47;;;1.63;;
24557;SDS011;12726;49.148;8.582;2023-07-13T06:35:37;3.60;;;1.60;;
24557;SDS011;12726;49.148;8.582;2023-07-13T06:38:24;4.10;;;1.70;;
24557;SDS011;12726;49.148;8.582;2023-07-13T06:41:09;5.78;;;1.75;;
24557;SDS011;12726;49.148;8.582;2023-07-13T06:43:54;3.90;;;1.83;;
24557;SDS011;12726;49.148;8.582;2023-07-13T06:46:39;3.58;;;1.75;;
24557;SDS011;12726;49.148;8.582;2023-07-13T06:49:25;2.63;;;1.38;;
24557;SDS011;12726;49.148;8.582;2023-07-13T06:52:10;2.72;;;1.30;;
24557;SDS011;12726;49.148;8.582;2023-07-13T06:54:57;4.07;;;1.40;;
24557;SDS011;12726;49.148;8.582;2023-07-13T06:57:42;2.15;;;1.25;;
24557;SDS011;12726;49.148;8.582;2023-07-13T07:00:27;3.42;;;1.17;;
24557;SDS011;12726;49.148;8.582;2023-07-13T07:03:13;2.08;;;1.27;;
24557;SDS011;12726;49.148;8.582;2023-07-13T07:06:00;3.05;;;0.93;;
24557;SDS011;12726;49.148;8.582;2023-07-13T07:08:45;3.63;;;1.35;;
24557;SDS011;12726;49.148;8.582;2023-07-13T07:11:32;2.53;;;0.98;;
24557;SDS011;12726;49.148;8.582;2023-07-13T07:14:17;3.35;;;1.58;;
24557;SDS011;12726;49.148;8.582;2023-07-13T07:17:03;5.25;;;1.10;;
24557;SDS011;12726;49.148;8.582;2023-07-13T07:19:48;3.72;;;1.00;;
24557;SDS011;12726;49.148;8.582;2023-07-13T07:22:33;5.13;;;1.70;;
24557;SDS011;12726;49.148;8.582;2023-07-13T07:25:19;1.80;;;1.00;;
24557;SDS011;12726;49.148;8.582;2023-07-13T07:28:05;4.90;;;0.95;;
24557;SDS011;12726;49.148;8.582;2023-07-13T07:30:52;6.97;;;2.00;;
24557;SDS011;12726;49.148;8.582;2023-07-13T07:33:38;4.45;;;1.05;;
24557;SDS011;12726;49.148;8.582;2023-07-13T07:36:24;3.35;;;1.00;;
24557;SDS011;12726;49.148;8.582;2023-07-13T07:39:09;4.38;;;1.52;;
24557;SDS011;12726;49.148;8.582;2023-07-13T07:41:55;1.42;;;0.75;;
24557;SDS011;12726;49.148;8.582;2023-07-13T07:44:42;2.03;;;0.90;;
24557;SDS011;12726;49.148;8.582;2023-07-13T07:47:27;2.17;;;0.90;;
24557;SDS011;12726;49.148;8.582;2023-07-13T07:50:13;3.00;;;0.90;;
24557;SDS011;12726;49.148;8.582;2023-07-13T07:52:58;1.55;;;0.82;;
24557;SDS011;12726;49.148;8.582;2023-07-13T07:55:45;4.53;;;1.48;;
24557;SDS011;12726;49.148;8.582;2023-07-13T07:58:31;3.13;;;0.70;;
24557;SDS011;12726;49.148;8.582;2023-07-13T08:01:18;2.30;;;1.08;;
24557;SDS011;12726;49.148;8.582;2023-07-13T08:04:03;5.05;;;0.95;;
24557;SDS011;12726;49.148;8.582;2023-07-13T08:06:49;3.67;;;0.88;;
24557;SDS011;12726;49.148;8.582;2023-07-13T08:09:34;3.03;;;1.02;;
24557;SDS011;12726;49.148;8.582;2023-07-13T08:12:19;2.17;;;0.80;;
24557;SDS011;12726;49.148;8.582;2023-07-13T08:15:05;3.55;;;0.93;;
24557;SDS011;12726;49.148;8.582;2023-07-13T08:17:55;4.88;;;1.08;;
24557;SDS011;12726;49.148;8.582;2023-07-13T08:20:40;4.32;;;0.93;;
24557;SDS011;12726;49.148;8.582;2023-07-13T08:23:26;2.97;;;0.82;;
24557;SDS011;12726;49.148;8.582;2023-07-13T08:26:11;5.68;;;1.15;;
24557;SDS011;12726;49.148;8.582;2023-07-13T08:28:57;3.40;;;1.20;;
24557;SDS011;12726;49.148;8.582;2023-07-13T08:31:42;3.72;;;1.20;;
24557;SDS011;12726;49.148;8.582;2023-07-13T08:34:29;2.25;;;0.90;;
24557;SDS011;12726;49.148;8.582;2023-07-13T08:37:15;3.50;;;1.30;;
24557;SDS011;12726;49.148;8.582;2023-07-13T08:40:01;1.92;;;1.10;;
24557;SDS011;12726;49.148;8.582;2023-07-13T08:42:50;4.43;;;0.90;;
24557;SDS011;12726;49.148;8.582;2023-07-13T08:45:40;2.25;;;1.00;;
24557;SDS011;12726;49.148;8.582;2023-07-13T08:48:30;2.08;;;0.85;;
24557;SDS011;12726;49.148;8.582;2023-07-13T08:51:26;5.72;;;0.80;;
24557;SDS011;12726;49.148;8.582;2023-07-13T08:54:19;3.20;;;1.00;;
24557;SDS011;12726;49.148;8.582;2023-07-13T08:57:10;4.85;;;0.95;;
24557;SDS011;12726;49.148;8.582;2023-07-13T08:59:58;4.55;;;0.90;;
24557;SDS011;12726;49.148;8.582;2023-07-13T09:02:45;3.00;;;0.73;;
24557;SDS011;12726;49.148;8.582;2023-07-13T09:05:36;1.90;;;0.80;;
24557;SDS011;12726;49.148;8.582;2023-07-13T09:08:31;3.63;;;1.00;;
24557;SDS011;12726;49.148;8.582;2023-07-13T09:11:31;2.20;;;0.80;;
24557;SDS011;12726;49.148;8.582;2023-07-13T09:14:34;1.83;;;0.57;;
24557;SDS011;12726;49.148;8.582;2023-07-13T09:17:27;2.75;;;1.05;;
24557;SDS011;12726;49.148;8.582;2023-07-13T09:20:19;4.68;;;1.10;;
24557;SDS011;12726;49.148;8.582;2023-07-13T09:23:10;4.30;;;0.90;;
24557;SDS011;12726;49.148;8.582;2023-07-13T09:26:02;3.35;;;0.98;;
24557;SDS011;12726;49.148;8.582;2023-07-13T09:28:50;5.70;;;0.80;;
24557;SDS011;12726;49.148;8.582;2023-07-13T09:31:41;3.40;;;1.00;;
24557;SDS011;12726;49.148;8.582;2023-07-13T09:34:30;3.03;;;0.77;;
24557;SDS011;12726;49.148;8.582;2023-07-13T09:37:17;4.30;;;0.80;;
24557;SDS011;12726;49.148;8.582;2023-07-13T09:40:05;3.25;;;1.15;;
24557;SDS011;12726;49.148;8.582;2023-07-13T09:42:57;2.33;;;0.70;;
24557;SDS011;12726;49.148;8.582;2023-07-13T09:45:44;4.28;;;0.88;;
24557;SDS011;12726;49.148;8.582;2023-07-13T09:48:34;2.67;;;0.85;;
24557;SDS011;12726;49.148;8.582;2023-07-13T09:51:20;3.88;;;0.98;;
24557;SDS011;12726;49.148;8.582;2023-07-13T09:54:09;2.05;;;0.70;;
24557;SDS011;12726;49.148;8.582;2023-07-13T09:57:03;3.00;;;1.00;;
24557;SDS011;12726;49.148;8.582;2023-07-13T09:59:59;3.20;;;0.85;;
24557;SDS011;12726;49.148;8.582;2023-07-13T10:02:45;2.72;;;0.90;;
24557;SDS011;12726;49.148;8.582;2023-07-13T10:05:38;3.35;;;1.10;;
24557;SDS011;12726;49.148;8.582;2023-07-13T10:08:26;2.80;;;1.00;;
24557;SDS011;12726;49.148;8.582;2023-07-13T10:11:16;3.15;;;1.00;;
24557;SDS011;12726;49.148;8.582;2023-07-13T10:14:09;4.38;;;1.25;;
24557;SDS011;12726;49.148;8.582;2023-07-13T10:16:58;3.08;;;0.93;;
24557;SDS011;12726;49.148;8.582;2023-07-13T10:19:48;3.33;;;1.05;;
24557;SDS011;12726;49.148;8.582;2023-07-13T10:22:36;2.50;;;1.13;;
24557;SDS011;12726;49.148;8.582;2023-07-13T10:25:29;2.08;;;0.90;;
24557;SDS011;12726;49.148;8.582;2023-07-13T10:28:21;4.30;;;0.90;;
24557;SDS011;12726;49.148;8.582;2023-07-13T10:31:12;4.75;;;1.00;;
24557;SDS011;12726;49.148;8.582;2023-07-13T10:34:01;6.75;;;1.17;;
24557;SDS011;12726;49.148;8.582;2023-07-13T10:36:47;3.85;;;1.00;;
24557;SDS011;12726;49.148;8.582;2023-07-13T10:39:33;3.45;;;1.05;;
24557;SDS011;12726;49.148;8.582;2023-07-13T10:42:23;3.40;;;0.82;;
24557;SDS011;12726;49.148;8.582;2023-07-13T10:45:13;6.65;;;1.13;;
24557;SDS011;12726;49.148;8.582;2023-07-13T10:47:59;2.45;;;1.10;;
24557;SDS011;12726;49.148;8.582;2023-07-13T10:50:48;6.03;;;0.93;;
24557;SDS011;12726;49.148;8.582;2023-07-13T10:53:37;2.75;;;1.20;;
24557;SDS011;12726;49.148;8.582;2023-07-13T10:56:27;2.47;;;0.85;;
24557;SDS011;12726;49.148;8.582;2023-07-13T10:59:14;3.72;;;1.08;;
24557;SDS011;12726;49.148;8.582;2023-07-13T11:02:09;2.97;;;1.17;;
24557;SDS011;12726;49.148;8.582;2023-07-13T11:04:56;2.85;;;1.10;;
24557;SDS011;12726;49.148;8.582;2023-07-13T11:07:54;4.40;;;1.00;;
24557;SDS011;12726;49.148;8.582;2023-07-13T11:10:49;3.67;;;0.90;;
24557;SDS011;12726;49.148;8.582;2023-07-13T11:13:37;2.83;;;1.27;;
24557;SDS011;12726;49.148;8.582;2023-07-13T11:16:43;4.15;;;1.20;;
24557;SDS011;12726;49.148;8.582;2023-07-13T11:22:43;2.53;;;0.80;;
24557;SDS011;12726;49.148;8.582;2023-07-13T11:25:32;3.67;;;1.10;;
24557;SDS011;12726;49.148;8.582;2023-07-13T11:28:24;2.38;;;0.82;;
24557;SDS011;12726;49.148;8.582;2023-07-13T11:31:15;4.25;;;1.10;;
24557;SDS011;12726;49.148;8.582;2023-07-13T11:34:02;3.58;;;1.00;;
24557;SDS011;12726;49.148;8.582;2023-07-13T11:36:47;4.18;;;1.05;;
24557;SDS011;12726;49.148;8.582;2023-07-13T11:39:33;4.35;;;1.02;;
24557;SDS011;12726;49.148;8.582;2023-07-13T11:42:23;3.25;;;1.20;;
24557;SDS011;12726;49.148;8.582;2023-07-13T11:45:18;5.47;;;1.30;;
24557;SDS011;12726;49.148;8.582;2023-07-13T11:48:16;3.53;;;1.08;;
24557;SDS011;12726;49.148;8.582;2023-07-13T11:51:06;6.65;;;1.20;;
24557;SDS011;12726;49.148;8.582;2023-07-13T11:54:06;3.65;;;1.00;;
24557;SDS011;12726;49.148;8.582;2023-07-13T11:57:01;2.92;;;0.93;;
24557;SDS011;12726;49.148;8.582;2023-07-13T11:59:51;3.80;;;1.02;;
24557;SDS011;12726;49.148;8.582;2023-07-13T12:02:39;6.57;;;1.45;;
24557;SDS011;12726;49.148;8.582;2023-07-13T12:05:27;5.20;;;1.38;;
24557;SDS011;12726;49.148;8.582;2023-07-13T12:08:16;2.00;;;1.00;;
24557;SDS011;12726;49.148;8.582;2023-07-13T12:11:04;3.15;;;1.10;;
24557;SDS011;12726;49.148;8.582;2023-07-13T12:13:50;3.42;;;1.30;;
24557;SDS011;12726;49.148;8.582;2023-07-13T12:16:37;2.80;;;1.00;;
24557;SDS011;12726;49.148;8.582;2023-07-13T12:19:22;3.42;;;1.33;;
24557;SDS011;12726;49.148;8.582;2023-07-13T12:22:11;1.80;;;0.93;;
24557;SDS011;12726;49.148;8.582;2023-07-13T12:24:57;3.67;;;0.95;;
24557;SDS011;12726;49.148;8.582;2023-07-13T12:27:45;3.55;;;0.98;;
24557;SDS011;12726;49.148;8.582;2023-07-13T12:30:33;1.98;;;0.80;;
24557;SDS011;12726;49.148;8.582;2023-07-13T12:33:21;4.22;;;1.10;;
24557;SDS011;12726;49.148;8.582;2023-07-13T12:36:12;3.63;;;0.93;;
24557;SDS011;12726;49.148;8.582;2023-07-13T12:38:59;3.35;;;1.25;;
24557;SDS011;12726;49.148;8.582;2023-07-13T12:42:09;3.90;;;0.93;;
24557;SDS011;12726;49.148;8.582;2023-07-13T12:45:05;3.42;;;0.93;;
24557;SDS011;12726;49.148;8.582;2023-07-13T12:48:03;3.28;;;1.20;;
24557;SDS011;12726;49.148;8.582;2023-07-13T12:50:54;2.80;;;0.80;;
24557;SDS011;12726;49.148;8.582;2023-07-13T12:53:41;4.47;;;1.45;;
24557;SDS011;12726;49.148;8.582;2023-07-13T12:56:32;5.22;;;1.20;;
24557;SDS011;12726;49.148;8.582;2023-07-13T12:59:18;2.53;;;1.00;;
24557;SDS011;12726;49.148;8.582;2023-07-13T13:05:07;3.15;;;1.00;;
24557;SDS011;12726;49.148;8.582;2023-07-13T13:08:00;3.80;;;0.95;;
24557;SDS011;12726;49.148;8.582;2023-07-13T13:10:45;2.08;;;0.95;;
24557;SDS011;12726;49.148;8.582;2023-07-13T13:13:30;2.50;;;1.00;;
24557;SDS011;12726;49.148;8.582;2023-07-13T13:16:17;2.85;;;0.70;;
24557;SDS011;12726;49.148;8.582;2023-07-13T13:19:10;3.25;;;1.25;;
24557;SDS011;12726;49.148;8.582;2023-07-13T13:24:44;2.60;;;0.98;;
24557;SDS011;12726;49.148;8.582;2023-07-13T13:27:31;1.38;;;0.80;;
24557;SDS011;12726;49.148;8.582;2023-07-13T13:30:17;3.50;;;0.88;;
24557;SDS011;12726;49.148;8.582;2023-07-13T13:33:04;5.68;;;1.00;;
24557;SDS011;12726;49.148;8.582;2023-07-13T13:35:50;6.35;;;1.00;;
24557;SDS011;12726;49.148;8.582;2023-07-13T13:38:36;2.45;;;0.90;;
24557;SDS011;12726;49.148;8.582;2023-07-13T13:41:23;5.60;;;1.00;;
24557;SDS011;12726;49.148;8.582;2023-07-13T13:44:08;3.25;;;0.80;;
24557;SDS011;12726;49.148;8.582;2023-07-13T13:46:54;2.92;;;1.08;;
24557;SDS011;12726;49.148;8.582;2023-07-13T13:49:41;2.45;;;0.75;;
24557;SDS011;12726;49.148;8.582;2023-07-13T13:52:27;2.05;;;0.88;;
24557;SDS011;12726;49.148;8.582;2023-07-13T13:55:13;1.60;;;0.80;;
24557;SDS011;12726;49.148;8.582;2023-07-13T13:58:00;2.13;;;0.70;;
24557;SDS011;12726;49.148;8.582;2023-07-13T14:00:45;2.97;;;0.98;;
24557;SDS011;12726;49.148;8.582;2023-07-13T14:03:32;4.60;;;1.25;;
24557;SDS011;12726;49.148;8.582;2023-07-13T14:06:17;1.90;;;0.90;;
24557;SDS011;12726;49.148;8.582;2023-07-13T14:09:04;6.43;;;0.80;;
24557;SDS011;12726;49.148;8.582;2023-07-13T14:11:53;5.68;;;1.00;;
24557;SDS011;12726;49.148;8.582;2023-07-13T14:14:42;3.78;;;1.20;;
24557;SDS011;12726;49.148;8.582;2023-07-13T14:17:28;2.15;;;1.00;;
24557;SDS011;12726;49.148;8.582;2023-07-13T14:20:13;2.42;;;0.82;;
24557;SDS011;12726;49.148;8.582;2023-07-13T14:22:59;3.97;;;0.80;;
24557;SDS011;12726;49.148;8.582;2023-07-13T14:25:44;5.82;;;0.95;;
24557;SDS011;12726;49.148;8.582;2023-07-13T14:28:31;2.45;;;0.82;;
24557;SDS011;12726;49.148;8.582;2023-07-13T14:31:18;2.58;;;1.00;;
24557;SDS011;12726;49.148;8.582;2023-07-13T14:34:04;1.63;;;0.77;;
24557;SDS011;12726;49.148;8.582;2023-07-13T14:36:50;2.70;;;0.85;;
24557;SDS011;12726;49.148;8.582;2023-07-13T14:39:36;1.80;;;1.23;;
24557;SDS011;12726;49.148;8.582;2023-07-13T14:42:22;3.95;;;1.20;;
24557;SDS011;12726;49.148;8.582;2023-07-13T14:45:12;3.78;;;1.10;;
24557;SDS011;12726;49.148;8.582;2023-07-13T14:48:00;2.83;;;1.05;;
24557;SDS011;12726;49.148;8.582;2023-07-13T14:50:50;2.15;;;1.00;;
24557;SDS011;12726;49.148;8.582;2023-07-13T14:53:38;2.73;;;0.90;;
24557;SDS011;12726;49.148;8.582;2023-07-13T14:56:24;3.17;;;0.70;;
24557;SDS011;12726;49.148;8.582;2023-07-13T14:59:10;4.30;;;0.77;;
24557;SDS011;12726;49.148;8.582;2023-07-13T15:01:56;4.03;;;0.90;;
24557;SDS011;12726;49.148;8.582;2023-07-13T15:04:43;4.47;;;1.20;;
24557;SDS011;12726;49.148;8.582;2023-07-13T15:07:28;2.53;;;1.02;;
24557;SDS011;12726;49.148;8.582;2023-07-13T15:10:14;2.33;;;1.33;;
24557;SDS011;12726;49.148;8.582;2023-07-13T15:16:03;2.22;;;0.75;;
24557;SDS011;12726;49.148;8.582;2023-07-13T15:18:51;2.88;;;1.25;;
24557;SDS011;12726;49.148;8.582;2023-07-13T15:21:38;3.03;;;1.02;;
24557;SDS011;12726;49.148;8.582;2023-07-13T15:24:23;2.90;;;0.82;;
24557;SDS011;12726;49.148;8.582;2023-07-13T15:27:10;2.60;;;0.80;;
24557;SDS011;12726;49.148;8.582;2023-07-13T15:29:57;2.03;;;0.88;;
24557;SDS011;12726;49.148;8.582;2023-07-13T15:32:42;4.38;;;1.48;;
24557;SDS011;12726;49.148;8.582;2023-07-13T15:35:28;3.75;;;0.80;;
24557;SDS011;12726;49.148;8.582;2023-07-13T15:38:16;2.75;;;0.82;;
24557;SDS011;12726;49.148;8.582;2023-07-13T15:41:04;6.05;;;1.10;;
24557;SDS011;12726;49.148;8.582;2023-07-13T15:44:00;1.83;;;0.82;;
24557;SDS011;12726;49.148;8.582;2023-07-13T15:47:05;4.90;;;1.00;;
24557;SDS011;12726;49.148;8.582;2023-07-13T15:49:50;2.60;;;0.80;;
24557;SDS011;12726;49.148;8.582;2023-07-13T15:52:35;1.80;;;0.73;;
24557;SDS011;12726;49.148;8.582;2023-07-13T15:55:22;2.17;;;0.70;;
24557;SDS011;12726;49.148;8.582;2023-07-13T15:58:08;1.83;;;0.80;;
24557;SDS011;12726;49.148;8.582;2023-07-13T16:00:55;2.45;;;1.00;;
24557;SDS011;12726;49.148;8.582;2023-07-13T16:03:41;4.88;;;0.88;;
24557;SDS011;12726;49.148;8.582;2023-07-13T16:06:26;2.40;;;0.75;;
24557;SDS011;12726;49.148;8.582;2023-07-13T16:09:17;3.40;;;1.08;;
24557;SDS011;12726;49.148;8.582;2023-07-13T16:12:10;2.35;;;0.73;;
24557;SDS011;12726;49.148;8.582;2023-07-13T16:14:56;6.20;;;1.20;;
24557;SDS011;12726;49.148;8.582;2023-07-13T16:17:42;6.50;;;1.05;;
24557;SDS011;12726;49.148;8.582;2023-07-13T16:20:27;1.95;;;0.82;;
24557;SDS011;12726;49.148;8.582;2023-07-13T16:23:13;2.67;;;1.20;;
24557;SDS011;12726;49.148;8.582;2023-07-13T16:26:00;1.73;;;0.85;;
24557;SDS011;12726;49.148;8.582;2023-07-13T16:28:48;3.50;;;1.10;;
24557;SDS011;12726;49.148;8.582;2023-07-13T16:31:33;2.35;;;1.10;;
24557;SDS011;12726;49.148;8.582;2023-07-13T16:34:18;1.90;;;1.20;;
24557;SDS011;12726;49.148;8.582;2023-07-13T16:37:13;2.28;;;0.98;;
24557;SDS011;12726;49.148;8.582;2023-07-13T16:40:00;3.63;;;1.10;;
24557;SDS011;12726;49.148;8.582;2023-07-13T16:45:41;2.60;;;0.90;;
24557;SDS011;12726;49.148;8.582;2023-07-13T16:48:28;3.75;;;0.70;;
24557;SDS011;12726;49.148;8.582;2023-07-13T16:51:14;3.08;;;1.00;;
24557;SDS011;12726;49.148;8.582;2023-07-13T16:53:59;1.67;;;0.88;;
24557;SDS011;12726;49.148;8.582;2023-07-13T16:56:45;3.60;;;0.90;;
24557;SDS011;12726;49.148;8.582;2023-07-13T16:59:32;5.45;;;1.70;;
24557;SDS011;12726;49.148;8.582;2023-07-13T17:02:29;4.88;;;1.80;;
24557;SDS011;12726;49.148;8.582;2023-07-13T17:05:17;5.55;;;1.90;;